Angelina County Airport Lufkin US
ICAO: KLFK
IATA: LFK
Category: Medium
Scheduled Services: No

Elevation: 296 ft
TransAlt. 18000 ft.

Airport Communications:
ASOS:120.625
HOUSTON CNTR:134.8
MONTGOMERY CO RDO:122.2
CTAF/UNICOM:123

KLFK Zoom In..

Runways:

(A) RW 07 length 5400 ft width 100 ft
ILS 111.30 / hdg 70

(B) RW 15 length 4311 ft width 100 ft
---- / hdg 155

(C) RW 25 length 5400 ft width 100 ft
---- / hdg 250

(D) RW 33 length 4311 ft width 100 ft
---- / hdg 335

Location; KLFK
Day. 19 / Time. 19.53 Zulu
* Altimeter: 29.91
* Temperature: 35° c. 95°f.
* Wind from: 210° Speed 05 kn.
Dewpoint: 22° c.
Visibility: 10 Statute Miles.
Clouds: Clear (automated report).

KLFK 191953Z AUTO 21005KT 10SM CLR 35/22 A2991 RMK AO2 SLP122 T03500217 TSNO


Wind From 210°
Speed 05 kn.

 
 
jpsmedia.com for Web Design worldairports.se 2018   terms of use